sensor_id;sensor_type;location;lat;lon;timestamp;P1;durP1;ratioP1;P2;durP2;ratioP2
31974;SDS011;18500;43.618;1.474;2022-09-03T07:17:56;204.77;;;192.68;;
31974;SDS011;18500;43.618;1.474;2022-09-03T07:20:22;163.15;;;152.88;;
31974;SDS011;18500;43.618;1.474;2022-09-03T07:22:47;164.93;;;153.90;;
31974;SDS011;18500;43.618;1.474;2022-09-03T07:25:13;251.50;;;236.50;;
31974;SDS011;18500;43.618;1.474;2022-09-03T07:27:39;244.80;;;230.15;;
31974;SDS011;18500;43.618;1.474;2022-09-03T07:30:05;226.68;;;212.55;;
31974;SDS011;18500;43.618;1.474;2022-09-03T07:32:33;200.32;;;187.95;;
31974;SDS011;18500;43.618;1.474;2022-09-03T07:35:00;181.18;;;169.80;;
31974;SDS011;18500;43.618;1.474;2022-09-03T07:37:26;300.65;;;283.20;;
31974;SDS011;18500;43.618;1.474;2022-09-03T07:39:52;349.08;;;328.58;;
31974;SDS011;18500;43.618;1.474;2022-09-03T07:42:18;368.00;;;346.25;;
31974;SDS011;18500;43.618;1.474;2022-09-03T07:44:45;379.45;;;357.05;;
31974;SDS011;18500;43.618;1.474;2022-09-03T07:47:10;360.30;;;338.92;;
31974;SDS011;18500;43.618;1.474;2022-09-03T07:49:37;389.77;;;366.58;;
31974;SDS011;18500;43.618;1.474;2022-09-03T07:52:02;390.83;;;367.55;;
31974;SDS011;18500;43.618;1.474;2022-09-03T07:54:28;579.65;;;542.67;;
31974;SDS011;18500;43.618;1.474;2022-09-03T07:56:55;764.95;;;709.67;;
31974;SDS011;18500;43.618;1.474;2022-09-03T07:59:21;646.25;;;603.05;;
31974;SDS011;18500;43.618;1.474;2022-09-03T08:01:47;612.03;;;572.58;;
31974;SDS011;18500;43.618;1.474;2022-09-03T08:04:14;654.22;;;611.25;;
31974;SDS011;18500;43.618;1.474;2022-09-03T08:06:40;632.10;;;589.63;;
31974;SDS011;18500;43.618;1.474;2022-09-03T08:09:07;723.13;;;672.08;;
31974;SDS011;18500;43.618;1.474;2022-09-03T08:11:36;827.03;;;765.40;;
31974;SDS011;18500;43.618;1.474;2022-09-03T08:14:06;854.38;;;787.58;;
31974;SDS011;18500;43.618;1.474;2022-09-03T08:16:34;927.88;;;851.50;;
31974;SDS011;18500;43.618;1.474;2022-09-03T08:19:02;991.10;;;902.78;;
31974;SDS011;18500;43.618;1.474;2022-09-03T08:21:28;848.60;;;781.75;;
31974;SDS011;18500;43.618;1.474;2022-09-03T08:23:54;1071.90;;;969.85;;
31974;SDS011;18500;43.618;1.474;2022-09-03T08:26:27;979.83;;;892.70;;
31974;SDS011;18500;43.618;1.474;2022-09-03T08:28:55;1089.85;;;982.80;;
31974;SDS011;18500;43.618;1.474;2022-09-03T08:31:21;1120.43;;;999.90;;
31974;SDS011;18500;43.618;1.474;2022-09-03T08:33:49;1093.95;;;990.80;;
31974;SDS011;18500;43.618;1.474;2022-09-03T08:36:23;1034.73;;;938.93;;
31974;SDS011;18500;43.618;1.474;2022-09-03T08:38:50;999.97;;;909.28;;
31974;SDS011;18500;43.618;1.474;2022-09-03T08:55:19;1140.47;;;999.90;;
31974;SDS011;18500;43.618;1.474;2022-09-03T08:58:15;1140.10;;;999.90;;
31974;SDS011;18500;43.618;1.474;2022-09-03T09:08:34;1179.72;;;999.90;;
31974;SDS011;18500;43.618;1.474;2022-09-03T09:16:39;1158.40;;;999.90;;
31974;SDS011;18500;43.618;1.474;2022-09-03T09:19:34;1170.68;;;999.90;;
31974;SDS011;18500;43.618;1.474;2022-09-03T09:22:28;1177.85;;;999.90;;
31974;SDS011;18500;43.618;1.474;2022-09-03T09:25:00;1492.10;;;999.90;;
31974;SDS011;18500;43.618;1.474;2022-09-03T09:27:29;1463.30;;;999.90;;
31974;SDS011;18500;43.618;1.474;2022-09-03T09:29:56;1283.82;;;999.90;;
31974;SDS011;18500;43.618;1.474;2022-09-03T09:32:26;1785.90;;;999.90;;
31974;SDS011;18500;43.618;1.474;2022-09-03T09:34:51;1932.00;;;999.90;;
31974;SDS011;18500;43.618;1.474;2022-09-03T09:37:19;1976.65;;;999.90;;
31974;SDS011;18500;43.618;1.474;2022-09-03T09:39:58;1760.25;;;999.90;;
31974;SDS011;18500;43.618;1.474;2022-09-03T09:42:25;1698.18;;;999.90;;
31974;SDS011;18500;43.618;1.474;2022-09-03T09:44:53;1959.78;;;999.90;;
31974;SDS011;18500;43.618;1.474;2022-09-03T09:47:26;1661.32;;;999.90;;
31974;SDS011;18500;43.618;1.474;2022-09-03T09:49:59;1441.13;;;999.90;;
31974;SDS011;18500;43.618;1.474;2022-09-03T09:52:27;1503.77;;;999.90;;
31974;SDS011;18500;43.618;1.474;2022-09-03T09:58:03;1240.22;;;999.90;;
31974;SDS011;18500;43.618;1.474;2022-09-03T10:00:30;1351.53;;;999.90;;
31974;SDS011;18500;43.618;1.474;2022-09-03T10:02:58;1080.13;;;969.78;;
31974;SDS011;18500;43.618;1.474;2022-09-03T10:05:26;1052.30;;;943.05;;
31974;SDS011;18500;43.618;1.474;2022-09-03T10:08:03;1092.10;;;975.10;;
31974;SDS011;18500;43.618;1.474;2022-09-03T10:10:32;1206.13;;;999.90;;
31974;SDS011;18500;43.618;1.474;2022-09-03T10:13:09;1168.57;;;999.90;;
31974;SDS011;18500;43.618;1.474;2022-09-03T10:18:48;1154.55;;;999.90;;
31974;SDS011;18500;43.618;1.474;2022-09-03T10:21:10;986.50;;;886.00;;
31974;SDS011;18500;43.618;1.474;2022-09-03T10:23:56;1056.55;;;941.92;;
31974;SDS011;18500;43.618;1.474;2022-09-03T10:26:42;1033.47;;;924.00;;
31974;SDS011;18500;43.618;1.474;2022-09-03T10:29:12;981.08;;;884.60;;
31974;SDS011;18500;43.618;1.474;2022-09-03T10:31:46;999.05;;;899.30;;
31974;SDS011;18500;43.618;1.474;2022-09-03T10:34:30;974.03;;;878.88;;
31974;SDS011;18500;43.618;1.474;2022-09-03T10:45:18;1023.80;;;918.13;;
31974;SDS011;18500;43.618;1.474;2022-09-03T11:01:30;974.33;;;884.58;;
31974;SDS011;18500;43.618;1.474;2022-09-03T11:07:12;844.63;;;766.75;;
31974;SDS011;18500;43.618;1.474;2022-09-03T11:09:45;914.95;;;821.78;;
31974;SDS011;18500;43.618;1.474;2022-09-03T11:12:49;963.25;;;871.22;;
31974;SDS011;18500;43.618;1.474;2022-09-03T11:15:12;896.13;;;813.58;;
31974;SDS011;18500;43.618;1.474;2022-09-03T11:17:52;966.25;;;855.83;;
31974;SDS011;18500;43.618;1.474;2022-09-03T11:20:28;964.65;;;860.72;;
31974;SDS011;18500;43.618;1.474;2022-09-03T11:22:59;699.03;;;636.30;;
31974;SDS011;18500;43.618;1.474;2022-09-03T11:25:31;809.28;;;737.33;;
31974;SDS011;18500;43.618;1.474;2022-09-03T11:28:15;765.33;;;693.30;;
31974;SDS011;18500;43.618;1.474;2022-09-03T11:33:53;894.35;;;816.28;;
31974;SDS011;18500;43.618;1.474;2022-09-03T11:36:30;932.15;;;848.42;;
31974;SDS011;18500;43.618;1.474;2022-09-03T11:38:58;883.38;;;804.55;;
31974;SDS011;18500;43.618;1.474;2022-09-03T11:44:09;768.60;;;702.33;;
31974;SDS011;18500;43.618;1.474;2022-09-03T11:47:12;923.85;;;835.65;;
31974;SDS011;18500;43.618;1.474;2022-09-03T11:50:34;908.85;;;825.50;;
31974;SDS011;18500;43.618;1.474;2022-09-03T11:53:09;912.20;;;830.72;;
31974;SDS011;18500;43.618;1.474;2022-09-03T11:55:53;913.50;;;833.47;;
31974;SDS011;18500;43.618;1.474;2022-09-03T11:58:24;1008.25;;;913.45;;
31974;SDS011;18500;43.618;1.474;2022-09-03T12:00:51;893.00;;;812.85;;
31974;SDS011;18500;43.618;1.474;2022-09-03T12:03:21;840.95;;;767.90;;
31974;SDS011;18500;43.618;1.474;2022-09-03T12:11:33;934.33;;;842.63;;
31974;SDS011;18500;43.618;1.474;2022-09-03T12:14:21;1000.30;;;898.70;;
31974;SDS011;18500;43.618;1.474;2022-09-03T12:17:13;967.97;;;872.60;;
31974;SDS011;18500;43.618;1.474;2022-09-03T12:19:52;1028.65;;;924.58;;
31974;SDS011;18500;43.618;1.474;2022-09-03T12:22:20;993.95;;;895.13;;
31974;SDS011;18500;43.618;1.474;2022-09-03T12:24:48;959.50;;;866.55;;
31974;SDS011;18500;43.618;1.474;2022-09-03T12:27:17;894.35;;;807.35;;
31974;SDS011;18500;43.618;1.474;2022-09-03T12:29:52;923.00;;;830.35;;
31974;SDS011;18500;43.618;1.474;2022-09-03T12:32:24;905.83;;;822.83;;
31974;SDS011;18500;43.618;1.474;2022-09-03T12:34:56;1024.28;;;927.42;;
31974;SDS011;18500;43.618;1.474;2022-09-03T12:37:23;921.20;;;838.88;;
31974;SDS011;18500;43.618;1.474;2022-09-03T12:39:53;927.67;;;844.50;;
31974;SDS011;18500;43.618;1.474;2022-09-03T12:42:27;919.83;;;835.80;;
31974;SDS011;18500;43.618;1.474;2022-09-03T12:45:03;939.42;;;851.17;;
31974;SDS011;18500;43.618;1.474;2022-09-03T12:47:40;886.83;;;800.25;;
31974;SDS011;18500;43.618;1.474;2022-09-03T12:50:11;853.67;;;774.60;;
31974;SDS011;18500;43.618;1.474;2022-09-03T12:52:39;808.65;;;736.40;;
31974;SDS011;18500;43.618;1.474;2022-09-03T12:59:16;1115.57;;;999.90;;
31974;SDS011;18500;43.618;1.474;2022-09-03T13:01:15;1168.93;;;999.90;;
31974;SDS011;18500;43.618;1.474;2022-09-03T13:03:49;1106.65;;;991.70;;
31974;SDS011;18500;43.618;1.474;2022-09-03T13:06:20;1050.47;;;952.88;;
31974;SDS011;18500;43.618;1.474;2022-09-03T13:08:50;1143.53;;;999.90;;
31974;SDS011;18500;43.618;1.474;2022-09-03T13:11:20;1313.30;;;999.90;;
31974;SDS011;18500;43.618;1.474;2022-09-03T13:13:59;1246.53;;;999.90;;
31974;SDS011;18500;43.618;1.474;2022-09-03T13:32:29;1169.05;;;999.90;;
31974;SDS011;18500;43.618;1.474;2022-09-03T13:35:12;1137.03;;;999.90;;
31974;SDS011;18500;43.618;1.474;2022-09-03T13:40:50;1158.30;;;999.90;;
31974;SDS011;18500;43.618;1.474;2022-09-03T13:45:44;1142.22;;;999.90;;
31974;SDS011;18500;43.618;1.474;2022-09-03T13:48:19;1222.85;;;999.90;;
31974;SDS011;18500;43.618;1.474;2022-09-03T13:51:16;1062.82;;;954.20;;
31974;SDS011;18500;43.618;1.474;2022-09-03T13:56:52;1014.03;;;913.22;;
31974;SDS011;18500;43.618;1.474;2022-09-03T13:59:41;1001.83;;;898.40;;
31974;SDS011;18500;43.618;1.474;2022-09-03T14:19:02;1434.60;;;999.90;;
31974;SDS011;18500;43.618;1.474;2022-09-03T14:21:44;1268.68;;;999.90;;
31974;SDS011;18500;43.618;1.474;2022-09-03T14:26:53;1166.28;;;999.90;;
31974;SDS011;18500;43.618;1.474;2022-09-03T14:29:24;1144.80;;;999.90;;
31974;SDS011;18500;43.618;1.474;2022-09-03T14:32:12;1108.38;;;994.47;;
31974;SDS011;18500;43.618;1.474;2022-09-03T14:34:59;1137.95;;;999.90;;
31974;SDS011;18500;43.618;1.474;2022-09-03T14:48:52;1117.63;;;999.65;;
31974;SDS011;18500;43.618;1.474;2022-09-03T14:51:35;1113.32;;;996.55;;
31974;SDS011;18500;43.618;1.474;2022-09-03T14:59:52;1128.88;;;999.90;;
31974;SDS011;18500;43.618;1.474;2022-09-03T15:02:45;1230.13;;;999.90;;
31974;SDS011;18500;43.618;1.474;2022-09-03T15:13:16;1192.07;;;999.90;;
31974;SDS011;18500;43.618;1.474;2022-09-03T15:15:53;1284.20;;;999.90;;
31974;SDS011;18500;43.618;1.474;2022-09-03T15:24:35;1134.78;;;999.90;;
31974;SDS011;18500;43.618;1.474;2022-09-03T15:30:13;1143.68;;;999.90;;
31974;SDS011;18500;43.618;1.474;2022-09-03T15:41:23;1141.28;;;999.90;;
31974;SDS011;18500;43.618;1.474;2022-09-03T15:44:12;1109.65;;;991.47;;
31974;SDS011;18500;43.618;1.474;2022-09-03T15:49:33;1030.20;;;923.35;;
31974;SDS011;18500;43.618;1.474;2022-09-03T15:52:02;1074.90;;;962.13;;
31974;SDS011;18500;43.618;1.474;2022-09-03T15:54:42;1046.05;;;936.42;;
31974;SDS011;18500;43.618;1.474;2022-09-03T15:57:29;1039.82;;;931.50;;
31974;SDS011;18500;43.618;1.474;2022-09-03T16:00:18;1038.15;;;930.10;;
31974;SDS011;18500;43.618;1.474;2022-09-03T16:02:46;1057.07;;;946.92;;
31974;SDS011;18500;43.618;1.474;2022-09-03T16:08:53;1030.68;;;923.35;;
31974;SDS011;18500;43.618;1.474;2022-09-03T16:20:14;962.85;;;867.35;;
31974;SDS011;18500;43.618;1.474;2022-09-03T16:30:21;1080.72;;;964.47;;
31974;SDS011;18500;43.618;1.474;2022-09-03T16:38:59;1001.55;;;897.10;;
31974;SDS011;18500;43.618;1.474;2022-09-03T16:47:55;954.78;;;858.13;;
31974;SDS011;18500;43.618;1.474;2022-09-03T16:53:55;929.63;;;834.92;;
31974;SDS011;18500;43.618;1.474;2022-09-03T16:56:47;952.75;;;855.13;;
31974;SDS011;18500;43.618;1.474;2022-09-03T17:10:51;1092.50;;;903.00;;
31974;SDS011;18500;43.618;1.474;2022-09-03T17:26:46;1498.43;;;992.20;;
31974;SDS011;18500;43.618;1.474;2022-09-03T17:32:21;1466.85;;;996.92;;
31974;SDS011;18500;43.618;1.474;2022-09-03T17:38:00;1622.40;;;999.90;;
31974;SDS011;18500;43.618;1.474;2022-09-03T17:44:09;1539.80;;;999.90;;
31974;SDS011;18500;43.618;1.474;2022-09-03T17:49:53;1550.88;;;999.90;;
31974;SDS011;18500;43.618;1.474;2022-09-03T17:52:38;1731.88;;;999.90;;
31974;SDS011;18500;43.618;1.474;2022-09-03T17:57:44;1768.22;;;999.90;;
31974;SDS011;18500;43.618;1.474;2022-09-03T18:00:32;1677.07;;;999.90;;
31974;SDS011;18500;43.618;1.474;2022-09-03T18:03:10;1675.32;;;999.90;;
31974;SDS011;18500;43.618;1.474;2022-09-03T18:05:46;1761.03;;;999.90;;
31974;SDS011;18500;43.618;1.474;2022-09-03T18:11:07;1788.75;;;999.90;;
31974;SDS011;18500;43.618;1.474;2022-09-03T18:14:06;1735.70;;;999.90;;
31974;SDS011;18500;43.618;1.474;2022-09-03T18:16:44;1375.47;;;999.72;;
31974;SDS011;18500;43.618;1.474;2022-09-03T18:19:36;1322.60;;;998.70;;
31974;SDS011;18500;43.618;1.474;2022-09-03T18:22:39;1288.07;;;991.78;;
31974;SDS011;18500;43.618;1.474;2022-09-03T18:25:36;1173.13;;;960.58;;
31974;SDS011;18500;43.618;1.474;2022-09-03T18:28:31;1032.47;;;918.50;;
31974;SDS011;18500;43.618;1.474;2022-09-03T18:31:21;1035.57;;;926.17;;
31974;SDS011;18500;43.618;1.474;2022-09-03T18:34:06;1054.18;;;945.70;;
31974;SDS011;18500;43.618;1.474;2022-09-03T18:36:51;1185.07;;;999.90;;
31974;SDS011;18500;43.618;1.474;2022-09-03T18:39:39;1328.40;;;999.90;;
31974;SDS011;18500;43.618;1.474;2022-09-03T18:48:30;1254.97;;;999.90;;
31974;SDS011;18500;43.618;1.474;2022-09-03T18:51:26;1298.85;;;999.90;;
31974;SDS011;18500;43.618;1.474;2022-09-03T18:57:25;1163.25;;;999.90;;
31974;SDS011;18500;43.618;1.474;2022-09-03T19:00:22;1157.80;;;999.90;;
31974;SDS011;18500;43.618;1.474;2022-09-03T19:06:37;1162.75;;;999.90;;
31974;SDS011;18500;43.618;1.474;2022-09-03T19:09:40;1167.13;;;999.90;;
31974;SDS011;18500;43.618;1.474;2022-09-03T19:15:30;1335.85;;;999.90;;
31974;SDS011;18500;43.618;1.474;2022-09-03T19:22:21;1200.43;;;999.90;;
31974;SDS011;18500;43.618;1.474;2022-09-03T19:25:16;1153.57;;;999.90;;
31974;SDS011;18500;43.618;1.474;2022-09-03T19:31:03;1116.25;;;999.88;;
31974;SDS011;18500;43.618;1.474;2022-09-03T19:34:09;1150.10;;;999.90;;
31974;SDS011;18500;43.618;1.474;2022-09-03T19:37:10;1116.95;;;999.63;;
31974;SDS011;18500;43.618;1.474;2022-09-03T19:43:40;1174.45;;;999.90;;
31974;SDS011;18500;43.618;1.474;2022-09-03T19:46:46;1185.88;;;999.90;;
31974;SDS011;18500;43.618;1.474;2022-09-03T19:55:59;1155.15;;;999.90;;
31974;SDS011;18500;43.618;1.474;2022-09-03T19:58:59;1147.20;;;999.90;;
31974;SDS011;18500;43.618;1.474;2022-09-03T20:01:48;1133.05;;;999.90;;
31974;SDS011;18500;43.618;1.474;2022-09-03T20:04:37;1119.50;;;999.63;;
31974;SDS011;18500;43.618;1.474;2022-09-03T20:07:26;1122.70;;;999.90;;
31974;SDS011;18500;43.618;1.474;2022-09-03T20:10:11;1111.47;;;995.15;;
31974;SDS011;18500;43.618;1.474;2022-09-03T20:16:12;1004.08;;;916.38;;
31974;SDS011;18500;43.618;1.474;2022-09-03T20:29:20;1017.97;;;930.45;;
31974;SDS011;18500;43.618;1.474;2022-09-03T20:34:38;1012.22;;;925.08;;
31974;SDS011;18500;43.618;1.474;2022-09-03T20:42:44;1043.85;;;951.28;;
31974;SDS011;18500;43.618;1.474;2022-09-03T20:45:42;1039.65;;;948.13;;
31974;SDS011;18500;43.618;1.474;2022-09-03T20:51:30;990.92;;;908.58;;
31974;SDS011;18500;43.618;1.474;2022-09-03T20:59:19;930.28;;;856.58;;
31974;SDS011;18500;43.618;1.474;2022-09-03T21:10:07;882.50;;;815.22;;
31974;SDS011;18500;43.618;1.474;2022-09-03T21:23:27;775.67;;;720.17;;
31974;SDS011;18500;43.618;1.474;2022-09-03T21:28:40;810.00;;;751.75;;
31974;SDS011;18500;43.618;1.474;2022-09-03T21:33:48;693.63;;;640.97;;
31974;SDS011;18500;43.618;1.474;2022-09-03T21:36:28;748.53;;;695.10;;
31974;SDS011;18500;43.618;1.474;2022-09-03T21:39:04;664.90;;;620.78;;
31974;SDS011;18500;43.618;1.474;2022-09-03T21:42:17;638.80;;;597.20;;
31974;SDS011;18500;43.618;1.474;2022-09-03T21:47:10;601.30;;;561.75;;
31974;SDS011;18500;43.618;1.474;2022-09-03T21:55:38;635.63;;;593.95;;
31974;SDS011;18500;43.618;1.474;2022-09-03T22:00:41;613.38;;;573.13;;
31974;SDS011;18500;43.618;1.474;2022-09-03T22:03:08;627.78;;;586.78;;
31974;SDS011;18500;43.618;1.474;2022-09-03T22:05:44;652.53;;;609.00;;
